Time;durP1;ratioP1;P1;durP2;ratioP2;P2;SDS_P1;SDS_P2;PMS_P1;PMS_P2;Temp;Humidity;BMP_temperature;BMP_pressure;BME280_temperature;BME280_humidity;BME280_pressure;Samples;Min_cycle;Max_cycle;Signal;HPM_P1;HPM_P2
2023/07/27 00:00:27;;;;;;;4.63;1.60;;;17.00;99.90;;;;;;4917137;29;20056;-84
2023/07/27 00:02:54;;;;;;;1.77;1.40;;;17.00;99.90;;;;;;4902717;29;20069;-84
2023/07/27 00:05:21;;;;;;;6.07;1.60;;;17.00;99.90;;;;;;4903889;29;20045;-84
2023/07/27 00:07:48;;;;;;;5.10;1.50;;;17.00;99.90;;;;;;4901863;29;20117;-84
2023/07/27 00:10:15;;;;;;;5.50;1.60;;;16.90;99.90;;;;;;4902430;29;20053;-84
2023/07/27 00:12:41;;;;;;;4.22;1.63;;;16.90;99.90;;;;;;4902217;29;20060;-84
2023/07/27 00:15:09;;;;;;;1.48;1.27;;;16.90;99.90;;;;;;4901681;29;20049;-84
2023/07/27 00:17:35;;;;;;;1.52;1.23;;;16.80;99.90;;;;;;4904297;29;20085;-85
2023/07/27 00:20:02;;;;;;;2.22;1.25;;;16.80;99.90;;;;;;4904446;29;20073;-84
2023/07/27 00:22:29;;;;;;;6.05;2.50;;;16.80;99.90;;;;;;4917900;29;20052;-84
2023/07/27 00:24:56;;;;;;;4.82;1.50;;;16.80;99.90;;;;;;4917589;29;20116;-84
2023/07/27 00:27:22;;;;;;;2.55;1.30;;;16.80;99.90;;;;;;4902569;29;20052;-84
2023/07/27 00:29:49;;;;;;;3.40;1.50;;;16.70;99.90;;;;;;4901905;29;20048;-84
2023/07/27 00:32:16;;;;;;;2.65;1.35;;;16.70;99.90;;;;;;4903274;29;20040;-84
2023/07/27 00:34:43;;;;;;;4.60;1.50;;;16.70;99.90;;;;;;4901989;29;20424;-84
2023/07/27 00:37:09;;;;;;;6.05;1.65;;;16.70;99.90;;;;;;4916681;29;20053;-84
2023/07/27 00:39:36;;;;;;;1.65;1.10;;;16.60;99.90;;;;;;4916824;29;20063;-84
2023/07/27 00:42:04;;;;;;;2.85;1.52;;;16.60;99.90;;;;;;4902344;29;20056;-84
2023/07/27 00:44:30;;;;;;;4.05;1.58;;;16.60;99.90;;;;;;4916825;29;20108;-84
2023/07/27 00:46:58;;;;;;;2.60;1.15;;;16.60;99.90;;;;;;4902841;29;20112;-84
2023/07/27 00:49:24;;;;;;;2.45;1.80;;;16.60;99.90;;;;;;4902753;29;20056;-84
2023/07/27 00:51:51;;;;;;;3.72;1.60;;;16.60;99.90;;;;;;4916124;29;20108;-84
2023/07/27 00:54:18;;;;;;;3.10;1.40;;;16.60;99.90;;;;;;4899122;29;20052;-84
2023/07/27 00:56:45;;;;;;;2.08;1.33;;;16.50;99.90;;;;;;4902724;29;20052;-85
2023/07/27 00:59:12;;;;;;;5.70;1.50;;;16.50;99.90;;;;;;4902255;29;20044;-84
2023/07/27 01:01:39;;;;;;;3.03;1.60;;;16.50;99.90;;;;;;4900655;29;20056;-84
2023/07/27 01:04:06;;;;;;;3.92;1.67;;;16.50;99.90;;;;;;4902657;29;20076;-84
2023/07/27 01:06:33;;;;;;;3.80;1.50;;;16.40;99.90;;;;;;4916766;29;20061;-84
2023/07/27 01:09:01;;;;;;;2.45;1.40;;;16.40;99.90;;;;;;4903408;29;20112;-84
2023/07/27 01:11:53;;;;;;;2.35;1.42;;;16.40;99.90;;;;;;4919673;29;20081;-84
2023/07/27 01:14:50;;;;;;;2.95;1.63;;;16.40;99.90;;;;;;4904847;29;20045;-84
2023/07/27 01:17:21;;;;;;;3.15;1.42;;;16.40;99.90;;;;;;4902503;29;20060;-84
2023/07/27 01:20:12;;;;;;;4.15;1.48;;;16.30;99.90;;;;;;4920388;29;20049;-84
2023/07/27 01:22:49;;;;;;;3.83;1.73;;;16.30;99.90;;;;;;4906524;29;20056;-84
2023/07/27 01:26:01;;;;;;;4.20;1.60;;;16.30;99.90;;;;;;4920419;29;20465;-85
2023/07/27 01:28:46;;;;;;;4.43;1.77;;;16.30;99.90;;;;;;4916852;29;20512;-86
2023/07/27 01:31:20;;;;;;;2.17;1.38;;;16.30;99.90;;;;;;4917381;29;20120;-83
2023/07/27 01:34:02;;;;;;;3.65;1.60;;;16.30;99.90;;;;;;4905992;29;20077;-84
2023/07/27 01:36:37;;;;;;;3.47;1.45;;;16.20;99.90;;;;;;4904833;29;20057;-85
2023/07/27 01:39:07;;;;;;;4.57;1.55;;;16.20;99.90;;;;;;4904754;29;20428;-84
2023/07/27 01:41:36;;;;;;;4.35;1.70;;;16.20;99.90;;;;;;4920348;29;20060;-84
2023/07/27 01:44:05;;;;;;;2.78;1.20;;;16.20;99.90;;;;;;4919799;29;20109;-84
2023/07/27 01:46:32;;;;;;;3.05;1.55;;;16.20;99.90;;;;;;4904594;29;20052;-84
2023/07/27 01:49:01;;;;;;;2.63;1.50;;;16.10;99.90;;;;;;4902813;29;20044;-84
2023/07/27 01:51:29;;;;;;;5.68;1.88;;;16.10;99.90;;;;;;4907746;29;20433;-85
2023/07/27 01:53:57;;;;;;;3.05;1.65;;;16.10;99.90;;;;;;4920276;29;20052;-84
2023/07/27 01:56:25;;;;;;;3.40;1.48;;;16.20;99.90;;;;;;4905750;29;20049;-84
2023/07/27 01:58:53;;;;;;;4.38;1.67;;;16.10;99.90;;;;;;4919955;29;20108;-84
2023/07/27 02:01:20;;;;;;;3.25;1.40;;;16.10;99.90;;;;;;4919929;29;20052;-84
2023/07/27 02:03:48;;;;;;;3.90;1.45;;;16.00;99.90;;;;;;4919652;29;20052;-85
2023/07/27 02:06:15;;;;;;;2.17;1.30;;;16.10;99.90;;;;;;4922031;29;20497;-85
2023/07/27 02:08:42;;;;;;;2.47;1.20;;;16.00;99.90;;;;;;4907425;29;20505;-84
2023/07/27 02:11:11;;;;;;;4.15;1.48;;;16.10;99.90;;;;;;4906910;29;20045;-84
2023/07/27 02:13:52;;;;;;;3.83;1.58;;;16.00;99.90;;;;;;4903587;29;20128;-85
2023/07/27 02:16:27;;;;;;;1.67;1.30;;;16.10;99.90;;;;;;4917317;29;20420;-85
2023/07/27 02:18:58;;;;;;;4.00;1.63;;;16.10;99.90;;;;;;4919192;29;20063;-83
2023/07/27 02:21:27;;;;;;;3.95;1.45;;;16.10;99.90;;;;;;4917961;29;20077;-84
2023/07/27 02:23:55;;;;;;;2.50;1.60;;;16.10;99.90;;;;;;4919819;29;20093;-85
2023/07/27 02:26:22;;;;;;;3.40;1.70;;;16.10;99.90;;;;;;4919315;29;20523;-84
2023/07/27 02:28:49;;;;;;;2.63;1.52;;;16.10;99.90;;;;;;4905408;29;20073;-84
2023/07/27 02:31:16;;;;;;;1.90;1.63;;;16.10;99.90;;;;;;4904785;29;20044;-84
2023/07/27 02:33:42;;;;;;;2.40;1.23;;;16.10;99.90;;;;;;4918930;29;20104;-83
2023/07/27 02:36:09;;;;;;;4.30;1.60;;;16.10;99.90;;;;;;4903304;29;20040;-84
2023/07/27 02:38:36;;;;;;;2.67;1.65;;;16.20;99.90;;;;;;4905067;29;20116;-85
2023/07/27 02:41:03;;;;;;;4.35;1.58;;;16.20;99.90;;;;;;4904463;29;20044;-83
2023/07/27 02:43:30;;;;;;;2.95;1.83;;;16.20;99.90;;;;;;4904687;29;20716;-84
2023/07/27 02:46:00;;;;;;;2.25;1.67;;;16.20;99.90;;;;;;4903937;29;20048;-84
2023/07/27 02:48:27;;;;;;;1.92;1.52;;;16.20;99.90;;;;;;4900848;29;20056;-85
2023/07/27 02:50:54;;;;;;;2.53;1.60;;;16.20;99.90;;;;;;4902413;29;20048;-84
2023/07/27 02:53:21;;;;;;;3.47;1.58;;;16.20;99.90;;;;;;4905151;29;20048;-84
2023/07/27 02:56:14;;;;;;;4.65;1.50;;;16.20;99.90;;;;;;4904865;29;20662;-84
2023/07/27 02:58:40;;;;;;;1.90;1.58;;;16.20;99.90;;;;;;4902473;29;20052;-84
2023/07/27 03:01:07;;;;;;;3.13;1.52;;;16.20;99.90;;;;;;4906706;29;20075;-84
2023/07/27 03:03:34;;;;;;;4.35;1.90;;;16.20;99.90;;;;;;4905407;29;20056;-85
2023/07/27 03:06:02;;;;;;;3.92;1.77;;;16.20;99.90;;;;;;4905772;29;20552;-84
2023/07/27 03:08:31;;;;;;;2.25;1.55;;;16.10;99.90;;;;;;4903948;29;20100;-85
2023/07/27 03:11:02;;;;;;;2.03;1.48;;;16.10;99.90;;;;;;4905031;29;20052;-85
2023/07/27 03:13:29;;;;;;;4.47;1.75;;;16.10;99.90;;;;;;4904153;29;20049;-84
2023/07/27 03:15:56;;;;;;;3.08;1.50;;;16.10;99.90;;;;;;4918581;29;20056;-84
2023/07/27 03:18:23;;;;;;;1.70;1.40;;;16.10;99.90;;;;;;4904728;29;20556;-84
2023/07/27 03:20:50;;;;;;;3.88;1.73;;;16.10;99.90;;;;;;4903096;29;20048;-84
2023/07/27 03:23:17;;;;;;;4.53;1.63;;;16.10;99.90;;;;;;4903046;29;20493;-84
2023/07/27 03:25:43;;;;;;;1.73;1.40;;;16.10;99.90;;;;;;4904654;29;20076;-85
2023/07/27 03:28:10;;;;;;;3.25;1.55;;;16.10;99.90;;;;;;4904856;29;20073;-85
2023/07/27 03:30:38;;;;;;;4.85;1.52;;;16.10;99.90;;;;;;4904368;29;20085;-84
2023/07/27 03:33:06;;;;;;;2.88;1.40;;;16.20;99.90;;;;;;4901277;29;20052;-84
2023/07/27 03:35:34;;;;;;;2.25;1.48;;;16.20;99.90;;;;;;4904771;29;20102;-84
2023/07/27 03:38:02;;;;;;;2.78;1.70;;;16.20;99.90;;;;;;4918621;29;20431;-84
2023/07/27 03:40:29;;;;;;;1.95;1.35;;;16.30;99.90;;;;;;4903864;29;20071;-85
2023/07/27 03:42:55;;;;;;;2.85;1.60;;;16.30;99.90;;;;;;4903679;29;20505;-84
2023/07/27 03:45:22;;;;;;;2.25;1.40;;;16.30;99.90;;;;;;4904082;29;20093;-84
2023/07/27 03:47:49;;;;;;;1.95;1.20;;;16.30;99.90;;;;;;4905155;29;20053;-84
2023/07/27 03:50:16;;;;;;;3.65;1.52;;;16.30;99.90;;;;;;4905709;29;20130;-84
2023/07/27 03:52:42;;;;;;;4.22;1.58;;;16.40;99.90;;;;;;4904246;29;20134;-85
2023/07/27 03:55:09;;;;;;;2.97;1.40;;;16.40;99.90;;;;;;4905694;29;20085;-85
2023/07/27 03:57:37;;;;;;;2.75;1.40;;;16.50;99.90;;;;;;4901673;29;20052;-84
2023/07/27 04:00:05;;;;;;;4.38;1.27;;;16.50;99.90;;;;;;4904687;29;20507;-84
2023/07/27 04:02:31;;;;;;;6.10;1.52;;;16.50;99.90;;;;;;4901890;29;20052;-84
2023/07/27 04:04:58;;;;;;;2.30;1.50;;;16.50;99.90;;;;;;4903219;29;20535;-85
2023/07/27 04:07:25;;;;;;;2.42;1.58;;;16.60;99.90;;;;;;4920549;29;20053;-84
2023/07/27 04:09:51;;;;;;;2.40;1.35;;;16.60;99.90;;;;;;4907765;29;20060;-85
2023/07/27 04:12:18;;;;;;;3.13;1.70;;;16.60;99.90;;;;;;4903924;29;20080;-84
2023/07/27 04:14:45;;;;;;;3.17;1.40;;;16.70;99.90;;;;;;4903413;29;20053;-84
2023/07/27 04:17:11;;;;;;;2.88;1.60;;;16.70;99.90;;;;;;4905098;29;20073;-85
2023/07/27 04:19:38;;;;;;;4.88;1.60;;;16.70;99.90;;;;;;4905029;29;20060;-84
2023/07/27 04:22:05;;;;;;;5.47;1.90;;;16.70;99.90;;;;;;4904939;29;20079;-84
2023/07/27 04:24:32;;;;;;;3.08;1.50;;;16.80;99.90;;;;;;4904704;29;20100;-85
2023/07/27 04:26:59;;;;;;;3.88;1.40;;;16.80;99.90;;;;;;4904389;29;20048;-84
2023/07/27 04:29:25;;;;;;;3.83;1.40;;;16.80;99.90;;;;;;4904626;29;20049;-84
2023/07/27 04:31:52;;;;;;;1.50;1.10;;;16.90;99.90;;;;;;4904673;29;20539;-84
2023/07/27 04:34:19;;;;;;;3.55;1.35;;;16.90;99.90;;;;;;4920472;29;20118;-85
2023/07/27 04:36:47;;;;;;;2.90;1.50;;;17.00;99.90;;;;;;4915962;29;20060;-85
2023/07/27 04:39:15;;;;;;;2.92;1.23;;;17.00;99.90;;;;;;4912335;29;20419;-84
2023/07/27 04:41:42;;;;;;;2.65;1.55;;;17.00;99.90;;;;;;4900561;29;20586;-84
2023/07/27 04:44:08;;;;;;;1.92;1.35;;;17.10;99.90;;;;;;4918961;29;20561;-85
2023/07/27 04:46:35;;;;;;;4.03;1.40;;;17.10;99.90;;;;;;4904693;29;20059;-85
2023/07/27 04:49:02;;;;;;;3.65;1.58;;;17.20;99.90;;;;;;4918694;29;20053;-84
2023/07/27 04:51:29;;;;;;;2.33;1.40;;;17.20;99.90;;;;;;4904970;29;20052;-84
2023/07/27 04:53:56;;;;;;;4.45;1.70;;;17.20;99.90;;;;;;4903484;29;20060;-84
2023/07/27 04:56:22;;;;;;;3.60;1.45;;;17.30;99.90;;;;;;4907664;29;20052;-84
2023/07/27 04:58:49;;;;;;;3.55;1.50;;;17.30;99.90;;;;;;4908120;29;20056;-84
2023/07/27 05:01:16;;;;;;;2.03;1.40;;;17.40;99.90;;;;;;4922261;29;20049;-85
2023/07/27 05:03:43;;;;;;;4.13;1.50;;;17.50;99.90;;;;;;4921633;29;20088;-83
2023/07/27 05:06:10;;;;;;;3.15;1.38;;;17.50;99.90;;;;;;4922109;29;20115;-84
2023/07/27 05:08:37;;;;;;;5.13;1.60;;;17.60;99.90;;;;;;4918995;29;20048;-84
2023/07/27 05:11:06;;;;;;;3.90;1.20;;;17.70;99.90;;;;;;4919570;29;20111;-84
2023/07/27 05:13:33;;;;;;;1.83;1.20;;;17.70;99.90;;;;;;4903172;29;20049;-84
2023/07/27 05:16:01;;;;;;;2.58;1.23;;;17.80;99.90;;;;;;4906497;29;20081;-84
2023/07/27 05:18:28;;;;;;;3.42;1.63;;;17.90;99.90;;;;;;4921064;29;20052;-85
2023/07/27 05:20:56;;;;;;;2.53;1.30;;;17.90;99.90;;;;;;4906080;29;20048;-84
2023/07/27 05:23:23;;;;;;;2.45;1.20;;;18.00;99.90;;;;;;4906275;29;20052;-84
2023/07/27 05:25:50;;;;;;;1.50;1.10;;;18.10;99.90;;;;;;4920503;29;20108;-84
2023/07/27 05:28:17;;;;;;;3.83;1.92;;;18.10;99.90;;;;;;4905680;29;20044;-84
2023/07/27 05:30:43;;;;;;;2.17;1.52;;;18.10;99.90;;;;;;4905425;29;20056;-83
2023/07/27 05:33:10;;;;;;;5.10;1.30;;;18.20;99.90;;;;;;4905745;29;20052;-84
2023/07/27 05:35:37;;;;;;;2.10;1.30;;;18.20;99.90;;;;;;4920747;29;20063;-84
2023/07/27 05:38:04;;;;;;;3.97;1.38;;;18.20;99.90;;;;;;4920291;29;20060;-85
2023/07/27 05:40:34;;;;;;;1.27;1.10;;;18.20;99.90;;;;;;4918266;29;20085;-85
2023/07/27 05:43:00;;;;;;;2.75;1.27;;;18.20;99.90;;;;;;4914673;29;20077;-85
2023/07/27 05:45:27;;;;;;;2.90;1.20;;;18.20;99.90;;;;;;4922251;29;20049;-84
2023/07/27 05:47:54;;;;;;;2.47;1.27;;;18.30;99.90;;;;;;4907223;29;20053;-85
2023/07/27 05:50:21;;;;;;;2.63;1.52;;;18.30;99.90;;;;;;4906178;29;20051;-85
2023/07/27 05:52:47;;;;;;;1.73;0.88;;;18.30;99.90;;;;;;4906271;29;20100;-85
2023/07/27 05:55:14;;;;;;;2.22;1.40;;;18.30;99.90;;;;;;4905951;29;20045;-84
2023/07/27 05:57:41;;;;;;;1.92;1.30;;;18.30;99.90;;;;;;4906558;29;20048;-83
2023/07/27 06:00:09;;;;;;;2.33;1.35;;;18.30;99.90;;;;;;4919540;29;20104;-85
2023/07/27 06:02:36;;;;;;;2.40;1.30;;;18.40;99.90;;;;;;4904473;29;20049;-85
2023/07/27 06:05:03;;;;;;;2.33;1.05;;;18.40;99.90;;;;;;4902852;29;20574;-85
2023/07/27 06:07:29;;;;;;;2.22;1.20;;;18.40;99.90;;;;;;4903908;29;20048;-84
2023/07/27 06:09:56;;;;;;;2.55;1.20;;;18.40;99.90;;;;;;4904029;29;20072;-85
2023/07/27 06:12:23;;;;;;;3.03;1.20;;;18.40;99.90;;;;;;4918601;29;20040;-84
2023/07/27 06:14:51;;;;;;;3.83;1.25;;;18.40;99.90;;;;;;4902774;29;20068;-84
2023/07/27 06:17:18;;;;;;;2.72;1.27;;;18.50;99.90;;;;;;4915660;29;20045;-85
2023/07/27 06:19:44;;;;;;;3.35;1.20;;;18.40;99.90;;;;;;4903415;29;20469;-85
2023/07/27 06:22:11;;;;;;;1.67;0.95;;;18.50;99.90;;;;;;4903086;29;20108;-84
2023/07/27 06:24:38;;;;;;;2.92;1.10;;;18.50;99.90;;;;;;4903236;29;20048;-84
2023/07/27 06:27:05;;;;;;;3.13;1.10;;;18.60;99.90;;;;;;4916528;29;20056;-83
2023/07/27 06:29:32;;;;;;;3.05;1.20;;;18.60;99.90;;;;;;4902036;29;20056;-84
2023/07/27 06:32:00;;;;;;;1.77;1.15;;;18.60;99.90;;;;;;4902535;29;20081;-84
2023/07/27 06:34:27;;;;;;;1.88;1.15;;;18.70;99.90;;;;;;4902467;29;20523;-84
2023/07/27 06:36:53;;;;;;;2.22;1.20;;;18.70;99.90;;;;;;4902828;29;20052;-85
2023/07/27 06:39:20;;;;;;;3.33;1.45;;;18.70;99.90;;;;;;4905621;29;20090;-84
2023/07/27 06:41:47;;;;;;;3.65;1.40;;;18.80;99.90;;;;;;4905462;29;20096;-84
2023/07/27 06:44:14;;;;;;;2.42;1.10;;;18.80;99.90;;;;;;4919167;29;20060;-84
2023/07/27 06:46:40;;;;;;;2.95;1.35;;;18.80;99.90;;;;;;4902747;29;20048;-84
2023/07/27 06:49:07;;;;;;;3.92;1.30;;;18.80;99.90;;;;;;4904109;29;20077;-84
2023/07/27 06:51:34;;;;;;;1.10;1.00;;;18.80;99.90;;;;;;4918112;29;20057;-84
2023/07/27 06:54:01;;;;;;;4.70;1.30;;;18.80;99.90;;;;;;4903272;29;20060;-84
2023/07/27 06:56:28;;;;;;;1.73;1.30;;;18.80;99.90;;;;;;4902905;29;20053;-84
2023/07/27 06:58:55;;;;;;;1.83;1.15;;;18.90;99.90;;;;;;4902890;29;20052;-85
2023/07/27 07:01:21;;;;;;;1.90;1.00;;;18.90;99.90;;;;;;4902759;29;20104;-86
2023/07/27 07:03:48;;;;;;;1.85;0.80;;;18.90;99.90;;;;;;4902742;29;20055;-85
2023/07/27 07:06:15;;;;;;;1.85;1.27;;;18.90;99.90;;;;;;4917131;29;20104;-84
2023/07/27 07:08:42;;;;;;;3.05;1.00;;;19.00;99.90;;;;;;4901009;29;20045;-85
2023/07/27 07:11:08;;;;;;;1.55;1.00;;;19.00;99.90;;;;;;4902506;29;20448;-85
2023/07/27 07:13:35;;;;;;;3.22;1.48;;;19.10;99.90;;;;;;4902587;29;20519;-84
2023/07/27 07:16:02;;;;;;;3.92;1.05;;;19.10;99.90;;;;;;4902385;29;20059;-85
2023/07/27 07:18:29;;;;;;;4.72;1.30;;;19.10;99.90;;;;;;4911304;29;20053;-85
2023/07/27 07:20:56;;;;;;;2.60;1.17;;;19.10;99.90;;;;;;4901844;29;20049;-86
2023/07/27 07:23:23;;;;;;;2.13;1.30;;;19.10;99.90;;;;;;4901649;29;20071;-85
2023/07/27 07:25:50;;;;;;;1.50;1.13;;;19.10;99.90;;;;;;4902205;29;20057;-84
2023/07/27 07:28:18;;;;;;;1.60;1.17;;;19.10;99.90;;;;;;4915898;29;20072;-84
2023/07/27 07:30:45;;;;;;;2.67;1.65;;;19.20;99.90;;;;;;4901807;29;20052;-85
2023/07/27 07:33:11;;;;;;;3.83;1.50;;;19.30;99.90;;;;;;4904525;29;20108;-85
2023/07/27 07:35:39;;;;;;;3.22;1.40;;;19.30;99.90;;;;;;4902773;29;20057;-85
2023/07/27 07:38:06;;;;;;;2.30;1.30;;;19.40;99.90;;;;;;4903271;29;20060;-84
2023/07/27 07:40:33;;;;;;;2.03;1.17;;;19.40;99.90;;;;;;4917267;29;20477;-86
2023/07/27 07:43:00;;;;;;;1.63;1.10;;;19.50;99.90;;;;;;4917588;29;20056;-85
2023/07/27 07:45:27;;;;;;;1.75;1.13;;;19.60;99.90;;;;;;4902503;29;20044;-84
2023/07/27 07:47:54;;;;;;;2.45;1.23;;;19.60;99.90;;;;;;4902627;29;20432;-84
2023/07/27 07:50:21;;;;;;;3.20;1.23;;;19.70;99.90;;;;;;4901220;29;20045;-84
2023/07/27 07:52:48;;;;;;;0.95;0.80;;;19.80;99.90;;;;;;4901977;29;20072;-84
2023/07/27 07:55:17;;;;;;;1.45;0.85;;;19.80;99.90;;;;;;4901030;29;20060;-84
2023/07/27 07:57:44;;;;;;;1.85;1.05;;;19.90;99.90;;;;;;4902398;29;20147;-83
2023/07/27 08:00:11;;;;;;;5.72;0.90;;;20.00;99.90;;;;;;4917098;29;20096;-84
2023/07/27 08:02:41;;;;;;;1.88;1.13;;;20.10;99.90;;;;;;4901883;29;20068;-84
2023/07/27 08:05:08;;;;;;;2.53;1.05;;;20.20;99.90;;;;;;4902066;29;20060;-85
2023/07/27 08:07:35;;;;;;;1.52;0.90;;;20.30;99.90;;;;;;4915349;29;20104;-84
2023/07/27 08:10:03;;;;;;;2.28;1.00;;;20.40;99.90;;;;;;4901781;29;20049;-85
2023/07/27 08:12:30;;;;;;;3.65;1.02;;;20.50;99.90;;;;;;4900461;29;20056;-85
2023/07/27 08:14:56;;;;;;;1.45;0.80;;;20.60;99.90;;;;;;4902144;29;20123;-84
2023/07/27 08:17:23;;;;;;;1.58;1.05;;;20.70;99.90;;;;;;4900747;29;20086;-83
2023/07/27 08:19:50;;;;;;;2.80;1.15;;;20.80;99.90;;;;;;4901274;29;20085;-84
2023/07/27 08:22:17;;;;;;;1.15;0.77;;;20.90;99.90;;;;;;4916159;29;20052;-84
2023/07/27 08:24:43;;;;;;;0.77;0.77;;;21.00;99.90;;;;;;4900348;29;20053;-84
2023/07/27 08:27:10;;;;;;;1.17;0.82;;;21.10;99.90;;;;;;4917243;29;20052;-85
2023/07/27 08:29:38;;;;;;;1.23;0.70;;;21.10;99.90;;;;;;4905789;29;20049;-84
2023/07/27 08:32:05;;;;;;;2.80;1.10;;;21.20;99.90;;;;;;4920335;29;20592;-85
2023/07/27 08:34:32;;;;;;;3.78;1.00;;;21.20;99.90;;;;;;4904502;29;20073;-84
2023/07/27 08:36:59;;;;;;;1.83;1.00;;;21.30;99.90;;;;;;4905843;29;20056;-84
2023/07/27 08:39:26;;;;;;;1.77;1.00;;;21.30;99.90;;;;;;4905780;29;20500;-85
2023/07/27 08:41:52;;;;;;;1.48;0.90;;;21.30;99.90;;;;;;4906176;29;20117;-84
2023/07/27 08:44:19;;;;;;;2.85;1.00;;;21.30;99.90;;;;;;4906162;29;20568;-84
2023/07/27 08:46:47;;;;;;;3.05;1.02;;;21.40;99.90;;;;;;4906121;29;20056;-84
2023/07/27 08:49:15;;;;;;;1.42;0.90;;;21.40;99.90;;;;;;4919768;29;20147;-84
2023/07/27 08:51:45;;;;;;;2.45;1.10;;;21.40;99.90;;;;;;4904240;29;20056;-84
2023/07/27 08:54:12;;;;;;;;;;;21.40;99.90;;;;;;4904472;29;20100;-84
2023/07/27 08:56:39;;;;;;;1.80;1.00;;;21.50;99.90;;;;;;4906105;29;19930;-84
2023/07/27 08:59:06;;;;;;;2.13;1.10;;;21.50;99.90;;;;;;4910675;29;20045;-84
2023/07/27 09:01:32;;;;;;;1.90;1.10;;;21.50;99.90;;;;;;4903637;29;20051;-84
2023/07/27 09:04:00;;;;;;;2.47;0.95;;;21.70;99.90;;;;;;4902536;29;20048;-84
2023/07/27 09:06:45;;;;;;;4.75;1.45;;;21.70;99.90;;;;;;4902253;29;20052;-84
2023/07/27 09:09:16;;;;;;;2.53;0.98;;;21.80;99.90;;;;;;4901168;29;20049;-84
2023/07/27 09:11:43;;;;;;;2.20;1.00;;;21.80;99.90;;;;;;4914140;29;20492;-84
2023/07/27 09:14:18;;;;;;;3.05;1.48;;;21.90;99.90;;;;;;4902380;29;20072;-84
2023/07/27 09:16:47;;;;;;;2.42;1.15;;;22.00;99.90;;;;;;4902404;29;20131;-84
2023/07/27 09:19:17;;;;;;;2.45;1.10;;;22.00;99.90;;;;;;4904637;29;20053;-83
2023/07/27 09:21:48;;;;;;;1.65;1.00;;;21.90;99.90;;;;;;4900871;29;20544;-85
2023/07/27 09:24:16;;;;;;;1.85;1.00;;;21.90;99.90;;;;;;4920255;29;20056;-84
2023/07/27 09:26:48;;;;;;;2.70;1.27;;;21.80;99.90;;;;;;4900722;29;20106;-84
2023/07/27 09:29:16;;;;;;;1.92;1.10;;;21.80;99.90;;;;;;4904866;29;20072;-84
2023/07/27 09:31:50;;;;;;;1.70;1.30;;;21.80;99.90;;;;;;4913630;29;20068;-84
2023/07/27 09:34:19;;;;;;;2.70;1.40;;;21.70;99.90;;;;;;4915609;29;20059;-84
2023/07/27 09:36:46;;;;;;;2.88;1.30;;;21.60;99.90;;;;;;4916335;29;20055;-84
2023/07/27 09:39:15;;;;;;;2.25;1.20;;;21.60;99.90;;;;;;4915973;29;20508;-85
2023/07/27 09:41:46;;;;;;;2.05;1.38;;;21.50;99.90;;;;;;4899784;29;20052;-83
2023/07/27 09:44:14;;;;;;;2.65;1.20;;;21.50;99.90;;;;;;4917205;29;20048;-82
2023/07/27 09:46:42;;;;;;;1.75;1.13;;;21.50;99.90;;;;;;4900089;29;20063;-85
2023/07/27 09:49:09;;;;;;;3.28;1.40;;;21.50;99.90;;;;;;4915694;29;20044;-83
2023/07/27 09:51:37;;;;;;;4.65;1.20;;;21.50;99.90;;;;;;4900513;29;20048;-83
2023/07/27 09:54:05;;;;;;;2.60;1.13;;;21.50;99.90;;;;;;4900098;29;20068;-84
2023/07/27 09:56:33;;;;;;;2.30;1.10;;;21.50;99.90;;;;;;4902228;29;20075;-83
2023/07/27 09:59:01;;;;;;;1.58;1.08;;;21.50;99.90;;;;;;4903420;29;20052;-83
2023/07/27 10:01:28;;;;;;;1.90;1.38;;;21.50;99.90;;;;;;4916255;29;20056;-84
2023/07/27 10:03:58;;;;;;;4.65;1.35;;;21.50;99.90;;;;;;4916294;29;20085;-83
2023/07/27 10:06:26;;;;;;;1.77;1.27;;;21.60;99.90;;;;;;4915701;29;20045;-84
2023/07/27 10:08:54;;;;;;;2.63;1.30;;;21.60;99.90;;;;;;4901858;29;20056;-82
2023/07/27 10:11:29;;;;;;;3.03;1.73;;;21.70;99.90;;;;;;4900232;29;20059;-84
2023/07/27 10:14:15;;;;;;;1.75;1.27;;;21.70;99.90;;;;;;4905800;29;20048;-84
2023/07/27 10:17:07;;;;;;;2.92;1.02;;;21.70;99.90;;;;;;4903442;29;20055;-84
2023/07/27 10:19:43;;;;;;;1.77;1.02;;;21.90;99.90;;;;;;4904329;29;20058;-84
2023/07/27 10:22:18;;;;;;;4.50;1.60;;;21.90;99.90;;;;;;4898031;29;20109;-83
2023/07/27 10:24:50;;;;;;;2.95;1.30;;;22.00;99.90;;;;;;4899833;29;20051;-84
2023/07/27 10:27:18;;;;;;;2.17;1.40;;;22.10;99.90;;;;;;4900737;29;20124;-84
2023/07/27 10:30:10;;;;;;;2.33;1.45;;;22.20;99.90;;;;;;4913721;29;20083;-84
2023/07/27 10:32:37;;;;;;;2.78;1.30;;;22.30;99.90;;;;;;4893028;29;20049;-85
2023/07/27 10:35:07;;;;;;;2.05;1.27;;;22.30;99.90;;;;;;4900026;29;20056;-85
2023/07/27 10:37:53;;;;;;;;;;;22.40;99.90;;;;;;4900681;29;20052;-84
2023/07/27 10:40:29;;;;;;;3.67;1.40;;;22.40;99.90;;;;;;4898708;29;20299;-84
2023/07/27 10:42:58;;;;;;;2.10;1.10;;;22.50;99.90;;;;;;4899682;29;20120;-84
2023/07/27 10:45:26;;;;;;;3.00;1.48;;;22.60;99.90;;;;;;4914045;29;20139;-85
2023/07/27 10:47:57;;;;;;;1.95;0.90;;;22.60;99.90;;;;;;4899971;29;20421;-84
2023/07/27 10:50:24;;;;;;;2.05;1.05;;;22.70;99.90;;;;;;4898091;29;20058;-84
2023/07/27 10:52:54;;;;;;;2.50;1.23;;;22.70;99.90;;;;;;4898734;29;20052;-83
2023/07/27 10:55:21;;;;;;;7.90;1.45;;;22.80;99.90;;;;;;4897773;29;20105;-84
2023/07/27 10:57:49;;;;;;;1.90;1.58;;;22.80;99.90;;;;;;4898781;29;20057;-84
2023/07/27 11:00:16;;;;;;;2.10;1.20;;;22.90;99.90;;;;;;4912776;29;20497;-84
2023/07/27 11:02:43;;;;;;;3.17;1.27;;;22.90;99.90;;;;;;4897892;29;20087;-85
2023/07/27 11:05:12;;;;;;;2.88;1.33;;;23.00;99.90;;;;;;4899877;29;20048;-85
2023/07/27 11:07:43;;;;;;;3.15;1.40;;;23.10;99.90;;;;;;4895007;29;20056;-85
2023/07/27 11:10:12;;;;;;;4.45;1.30;;;23.10;99.90;;;;;;4898502;29;20095;-85
2023/07/27 11:12:49;;;;;;;2.15;1.60;;;23.20;99.90;;;;;;4912027;29;20045;-85
2023/07/27 11:15:27;;;;;;;2.35;1.45;;;23.20;99.90;;;;;;4913353;29;20047;-85
2023/07/27 11:17:57;;;;;;;4.38;1.33;;;23.30;99.90;;;;;;4916821;29;20036;-87
2023/07/27 11:20:26;;;;;;;2.15;1.27;;;23.30;99.90;;;;;;4910309;29;20055;-84
2023/07/27 11:22:55;;;;;;;4.00;1.63;;;23.40;99.90;;;;;;4895934;29;20127;-85
2023/07/27 11:25:23;;;;;;;2.65;1.48;;;23.40;99.90;;;;;;4899206;29;20056;-84
2023/07/27 11:27:52;;;;;;;3.60;1.42;;;23.50;99.90;;;;;;4901093;29;20044;-84
2023/07/27 11:30:21;;;;;;;1.55;1.13;;;23.60;99.90;;;;;;4900109;29;20044;-85
2023/07/27 11:33:02;;;;;;;3.63;1.30;;;23.60;99.90;;;;;;4899209;29;20055;-83
2023/07/27 11:35:30;;;;;;;3.50;1.20;;;23.60;99.90;;;;;;4899516;29;20052;-85
2023/07/27 11:37:57;;;;;;;1.38;1.23;;;23.50;99.90;;;;;;4901639;29;20113;-85
2023/07/27 11:40:26;;;;;;;4.88;1.33;;;23.50;99.90;;;;;;4901999;29;20088;-84
2023/07/27 11:42:53;;;;;;;3.88;1.23;;;23.50;99.90;;;;;;4902336;29;20056;-85
2023/07/27 11:45:20;;;;;;;3.95;1.30;;;23.40;99.90;;;;;;4898664;29;20093;-85
2023/07/27 11:47:50;;;;;;;1.38;1.23;;;23.50;99.90;;;;;;4902396;29;20041;-84
2023/07/27 11:50:18;;;;;;;2.17;1.20;;;23.50;99.90;;;;;;4903153;29;20689;-84
2023/07/27 11:52:44;;;;;;;4.47;1.50;;;23.50;99.90;;;;;;4902951;29;20476;-84
2023/07/27 11:55:15;;;;;;;1.92;1.20;;;23.60;99.90;;;;;;4913704;29;20069;-85
2023/07/27 11:57:50;;;;;;;4.75;1.27;;;23.60;99.90;;;;;;4931201;29;20045;-86
2023/07/27 12:00:17;;;;;;;1.48;1.10;;;23.70;99.90;;;;;;4921526;29;20048;-83
2023/07/27 12:02:49;;;;;;;2.05;1.27;;;23.80;99.90;;;;;;4913721;29;20060;-84
2023/07/27 12:05:19;;;;;;;3.70;1.30;;;23.90;99.90;;;;;;4899661;29;20076;-85
2023/07/27 12:07:47;;;;;;;1.98;1.27;;;24.00;99.90;;;;;;4897862;29;20049;-85
2023/07/27 12:10:17;;;;;;;2.17;1.25;;;24.00;99.90;;;;;;4900952;29;20108;-87
2023/07/27 12:13:03;;;;;;;3.47;1.08;;;24.00;99.90;;;;;;4899690;29;20127;-83
2023/07/27 12:15:32;;;;;;;1.38;1.27;;;24.00;99.90;;;;;;4900934;29;20053;-86
2023/07/27 12:18:01;;;;;;;1.98;1.20;;;23.90;99.90;;;;;;4901559;29;20048;-85
2023/07/27 12:20:30;;;;;;;3.95;1.10;;;23.90;99.90;;;;;;4901470;29;20088;-85
2023/07/27 12:23:00;;;;;;;2.28;1.10;;;23.80;99.90;;;;;;4901535;29;20568;-86
2023/07/27 12:25:30;;;;;;;2.33;1.40;;;23.80;99.90;;;;;;4899501;29;20048;-85
2023/07/27 12:27:59;;;;;;;2.13;0.90;;;23.70;99.90;;;;;;4901111;29;20501;-86
2023/07/27 12:30:29;;;;;;;1.50;1.17;;;23.70;99.90;;;;;;4900897;29;20052;-86
2023/07/27 12:32:56;;;;;;;1.15;1.05;;;23.70;99.90;;;;;;4900781;29;20049;-86
2023/07/27 12:35:22;;;;;;;2.30;1.08;;;23.70;99.90;;;;;;4916118;29;20428;-85
2023/07/27 12:37:51;;;;;;;1.00;0.90;;;23.70;99.90;;;;;;4901959;29;20083;-85
2023/07/27 12:40:18;;;;;;;2.08;1.30;;;23.70;99.90;;;;;;4901935;29;20473;-86
2023/07/27 12:42:45;;;;;;;2.22;1.00;;;23.70;99.90;;;;;;4900039;29;20104;-85
2023/07/27 12:45:13;;;;;;;3.33;1.33;;;23.70;99.90;;;;;;4901639;29;20132;-85
2023/07/27 12:47:42;;;;;;;1.52;1.30;;;23.80;99.90;;;;;;4915913;29;20076;-85
2023/07/27 12:50:12;;;;;;;1.35;0.80;;;23.80;99.90;;;;;;4900653;29;20052;-85
2023/07/27 12:52:41;;;;;;;1.83;1.05;;;23.90;99.90;;;;;;4897851;29;20112;-85
2023/07/27 12:55:16;;;;;;;1.67;1.10;;;24.00;99.90;;;;;;4900305;29;20041;-85